Bobby Golding — WDH2183 — position and weather

sailwx.info

Track history (hours):
 
Tides and Currents Weather Stations Pressure Air Temp Water Temp Dewpoint Dewpoint Depression Visibility Wind Speed Wind Dir Waves Ship Positions

Bobby Golding

Owner: GOLDING BARGE LINE, INC, VICKSBURG, MS. More information available from US FCC via Universal Licensing System and Coast Guard Vessel Documentation Center.

Last reported at 2017-Nov-19 06:38 UTC. Time now 2017-Nov-22 01:35 UTC.
Position N 31°59' W 091°06'.

Length 208 m; draft 2.7 m.

Type: . MMSI: 367595180.

Date/timePositionNaut miles runAvg speedWind from/ knotsBaromVisibWave heightAir tempDewpointWater temp
2017-Nov-19 06:38N 31°59' W 091°06'310.5
2017-Nov-19 06:23N 32°01' W 091°04'5 9.1
2017-Nov-19 05:48N 32°06' W 091°06'2 6.1
2017-Nov-19 05:30N 32°08' W 091°05'3 6.6
2017-Nov-19 05:00N 32°07' W 091°02'4 8.6
2017-Nov-19 04:30N 32°11' W 090°60'5 9.3
2017-Nov-19 04:00N 32°16' W 090°58'4 8.8
2017-Nov-19 03:30N 32°19' W 090°54'3 5.6
2017-Nov-19 03:00N 32°21' W 090°57'3 6.7
2017-Nov-19 02:30N 32°22' W 091°00'4 7.3
2017-Nov-19 02:00N 32°26' W 091°02'4 8.5
2017-Nov-19 01:30N 32°28' W 091°06'6 8.3
2017-Nov-19 00:48N 32°34' W 091°06'3 9.2
2017-Nov-19 00:30N 32°36' W 091°08'  
2017-Nov-13 23:16N 32°43' W 091°03'5 3.5
2017-Nov-13 21:59N 32°40' W 091°07'  
Track history (hours):
 
Tides and Currents Weather Stations Pressure Air Temp Water Temp Dewpoint Dewpoint Depression Visibility Wind Speed Wind Dir Waves Ship Positions

Bobby Golding

Owner: GOLDING BARGE LINE, INC, VICKSBURG, MS. More information available from US FCC via Universal Licensing System and Coast Guard Vessel Documentation Center.

Last reported at 2017-Nov-19 06:38 UTC. Time now 2017-Nov-22 01:35 UTC.
Position N 31°59' W 091°06'.

Length 208 m; draft 2.7 m.

Type: . MMSI: 367595180.

Date/timePositionNaut miles runAvg speedWind from/ knotsBaromVisibWave heightAir tempDewpointWater temp
2017-Nov-19 06:38N 31°59' W 091°06'310.5
2017-Nov-19 06:23N 32°01' W 091°04'5 9.1
2017-Nov-19 05:48N 32°06' W 091°06'2 6.1
2017-Nov-19 05:30N 32°08' W 091°05'3 6.6
2017-Nov-19 05:00N 32°07' W 091°02'4 8.6
2017-Nov-19 04:30N 32°11' W 090°60'5 9.3
2017-Nov-19 04:00N 32°16' W 090°58'4 8.8
2017-Nov-19 03:30N 32°19' W 090°54'3 5.6
2017-Nov-19 03:00N 32°21' W 090°57'3 6.7
2017-Nov-19 02:30N 32°22' W 091°00'4 7.3
2017-Nov-19 02:00N 32°26' W 091°02'4 8.5
2017-Nov-19 01:30N 32°28' W 091°06'6 8.3
2017-Nov-19 00:48N 32°34' W 091°06'3 9.2
2017-Nov-19 00:30N 32°36' W 091°08'  
2017-Nov-13 23:16N 32°43' W 091°03'5 3.5
2017-Nov-13 21:59N 32°40' W 091°07'  

Dump ship's entire track history